Bigfork, MN

6:47 AM CDT on July 22, 2014 (GMT -0500)
Bigfork Municipal (KFOZ) Elev 1348 ft | 47.78 °N, 93.65 °W | Change Station

Current weather conditions updated 26 minutes ago

Mostly Cloudy
Mostly Cloudy
64 °F
Feels Like 64 °F
N
6
Wind Variable Wind from WNW

Today is forecast to be nearly the same temperature as yesterday. Light rain early.

Today
High -- | Low -- °F
--% Chance of Precip.
Yesterday
High -- | Low -- °F
Precip. -- in
5:39 AM 9:02 PM
Waning Crescent, 18% visible
Pressure 29.84 in
Visibility 10.0 miles
Clouds Mostly Cloudy 900 ft
Dew Point 63 °F
Humidity 94%
Rainfall 0.00 in
Snow Depth Not available.
UV 0 out of 12
Pollen 3.30 out of 12
Air Quality Not available.
Flu Activity Sporadic
METAR KFOZ 221121Z AUTO 30005KT 10SM BKN009 18/17 A2984 RMK AO2

More Conditions Fewer Conditions

Pressure 29.84 in
Visibility 10.0 miles
Clouds Mostly Cloudy 900 ft
Dew Point 63 °F
Humidity 94%
Rainfall 0.00 in
Snow Depth Not available.
UV 0 out of 12
Pollen 3.30 out of 12
Air Quality Not available.
Flu Activity Sporadic
METAR KFOZ 221121Z AUTO 30005KT 10SM BKN009 18/17 A2984 RMK AO2

More Conditions Fewer Conditions

10-Day Weather Forecast

LIGHTNING

Thunderstorms are forecast for your area. Cloud conditions might be right for producing strikes in the next few days, though lightning itself cannot be forecasted.

Lightning is a visible electrical discharge produced by a thunderstorm, based on the build up of oppositely charged particles within a cloud and from cloud to ground.

Know how to stay safe in a lightning storm.

Check out these Lightning WunderPhotos!

Almanac

Astronomy

Jul. 22, 2014 Rise Set
Actual Time 5:39 AM CDT 9:02 PM CDT
Civil Twilight 5:01 AM CDT 9:39 PM CDT
Nautical Twilight 4:11 AM CDT 10:29 PM CDT
Astronomical Twilight 3:05 AM CDT 11:33 PM CDT
Moon 2:16 AM CDT 5:38 PM CDT
Length of Visible Light 16h 38m
Length of Day
15h 22m
Tomorrow will be 2m 17s shorter.
Waning Crescent, 18% of the Moon is Illuminated
Today
Waning Crescent
Jul 26
New
Aug 3
First Quarter
Aug 10
Full
Aug 17
Last Quarter

Today's Extremes

State Highs State Lows

Community

WunderPhotos

Upload Photos

1,736,199 photos uploaded!

Nearby

Snow Depth

Station Depth Elevation
No new snow has been reported.

Earthquake Activity

City Distance Mag. Time & Date
No recent earthquake activity has been reported nearby.
Minimum magnitude displayed is 2.5.

Coastal Water Temperatures

Place Temperature
No Stations Reporting

Nearby Weather Stations

Station Location Temp. Dew Point Humidity Wind Precip. Elev Updated Type
Bigfork, Bigfork, MN 65.6 °F 65 °F 96% South  at  1.0 mph 0.00 in / hr 1375 ft 6:41 AM CDT Normal
Long Lake 59-24, Bigfork, MN 64.9 °F 64 °F 98% WSW  at  2.0 mph 0.80 in / hr 1381 ft 6:47 AM CDT Rapid Fire

Show More Stations Show Fewer Stations